createdAt,value
2023-03-29T00:00:42.325Z,10.18
2023-03-29T00:05:45.877Z,10.00
2023-03-29T00:10:52.089Z,8.38
2023-03-29T00:15:56.312Z,10.20
2023-03-29T00:21:01.227Z,8.13
2023-03-29T00:26:08.312Z,8.82
2023-03-29T00:31:13.903Z,8.43
2023-03-29T00:36:17.893Z,10.07
2023-03-29T00:41:22.839Z,8.90
2023-03-29T00:46:27.391Z,8.73
2023-03-29T00:51:35.535Z,9.63
2023-03-29T00:56:42.400Z,9.88
2023-03-29T01:01:50.613Z,8.68
2023-03-29T01:06:58.314Z,10.40
2023-03-29T01:12:09.761Z,7.90
2023-03-29T01:17:13.131Z,8.13
2023-03-29T01:22:28.528Z,9.32
2023-03-29T01:27:56.096Z,8.85
2023-03-29T01:33:03.930Z,9.05
2023-03-29T01:38:11.139Z,7.68
2023-03-29T01:43:28.292Z,7.63
2023-03-29T01:48:35.628Z,8.48
2023-03-29T01:53:45.495Z,8.32
2023-03-29T01:58:53.912Z,9.32
2023-03-29T02:04:04.268Z,7.80
2023-03-29T02:09:08.456Z,8.35
2023-03-29T02:14:14.016Z,7.22
2023-03-29T02:19:18.867Z,8.77
2023-03-29T02:24:26.332Z,8.05
2023-03-29T02:29:31.217Z,7.28
2023-03-29T02:34:37.778Z,6.55
2023-03-29T02:39:42.522Z,7.72
2023-03-29T02:44:51.343Z,7.45
2023-03-29T02:49:55.051Z,8.23
2023-03-29T02:55:00.529Z,8.65
2023-03-29T03:00:09.631Z,6.25
2023-03-29T03:05:13.339Z,5.82
2023-03-29T03:10:19.645Z,8.07
2023-03-29T03:15:24.497Z,9.02
2023-03-29T03:20:27.901Z,7.30
2023-03-29T03:25:31.801Z,8.80
2023-03-29T03:30:36.723Z,7.25
2023-03-29T03:35:40.353Z,7.03
2023-03-29T03:40:44.072Z,7.82
2023-03-29T03:45:49.161Z,6.57
2023-03-29T03:50:55.078Z,7.72
2023-03-29T03:55:58.549Z,7.53
2023-03-29T04:01:04.357Z,9.05
2023-03-29T04:06:08.182Z,8.05
2023-03-29T04:11:12.016Z,8.23
2023-03-29T04:16:16.992Z,7.95
2023-03-29T04:21:21.332Z,6.40
2023-03-29T04:26:25.017Z,8.05
2023-03-29T04:31:29.873Z,9.43
2023-03-29T04:36:33.367Z,10.70
2023-03-29T04:41:47.417Z,9.95
2023-03-29T04:46:52.423Z,7.68
2023-03-29T04:51:56.099Z,7.72
2023-03-29T04:56:59.470Z,6.95
2023-03-29T05:02:05.130Z,9.40
2023-03-29T05:07:08.791Z,7.88
2023-03-29T05:12:12.306Z,9.82
2023-03-29T05:17:17.218Z,7.38
2023-03-29T05:22:21.744Z,6.60
2023-03-29T05:27:25.635Z,5.40
2023-03-29T05:32:30.704Z,7.63
2023-03-29T05:37:34.856Z,8.25
2023-03-29T05:42:39.059Z,8.43
2023-03-29T05:47:44.786Z,6.93
2023-03-29T05:52:48.176Z,7.63
2023-03-29T05:57:51.702Z,7.00
2023-03-29T06:03:03.688Z,7.25
2023-03-29T06:08:13.520Z,8.75
2023-03-29T06:13:17.903Z,7.07
2023-03-29T06:18:22.681Z,6.30
2023-03-29T06:23:26.221Z,7.05
2023-03-29T06:28:30.076Z,6.88
2023-03-29T06:33:37.284Z,5.47
2023-03-29T06:38:41.788Z,6.65
2023-03-29T06:43:45.480Z,7.43
2023-03-29T06:48:50.470Z,8.13
2023-03-29T06:53:54.099Z,6.57
2023-03-29T06:58:57.581Z,8.23
2023-03-29T07:04:05.004Z,7.28
2023-03-29T07:09:09.159Z,6.80
2023-03-29T07:14:12.635Z,8.63
2023-03-29T07:19:17.556Z,8.18
2023-03-29T07:24:21.506Z,12.32
2023-03-29T07:29:24.971Z,11.48
2023-03-29T07:34:31.592Z,6.57
2023-03-29T07:39:35.505Z,6.32
2023-03-29T07:44:39.195Z,7.53
2023-03-29T07:49:44.044Z,9.63
2023-03-29T07:54:47.692Z,10.23
2023-03-29T07:59:51.108Z,11.38
2023-03-29T08:04:57.087Z,10.93
2023-03-29T08:10:01.268Z,5.47
2023-03-29T08:15:06.264Z,6.70
2023-03-29T08:20:15.209Z,7.95
2023-03-29T08:25:18.901Z,8.18
2023-03-29T08:30:22.508Z,8.88
2023-03-29T08:35:27.744Z,10.52
2023-03-29T08:40:31.898Z,7.25
2023-03-29T08:45:41.764Z,8.23
2023-03-29T08:50:52.827Z,8.48
2023-03-29T08:55:59.508Z,9.60
2023-03-29T09:01:06.243Z,7.72
2023-03-29T09:06:12.944Z,7.78
2023-03-29T09:11:30.558Z,8.60
2023-03-29T09:16:43.353Z,7.85
2023-03-29T09:21:52.838Z,8.98
2023-03-29T09:27:01.229Z,12.90
2023-03-29T09:32:14.265Z,10.60
2023-03-29T09:37:24.822Z,9.48
2023-03-29T09:42:31.292Z,13.20
2023-03-29T09:47:39.180Z,9.65
2023-03-29T09:52:44.222Z,11.82
2023-03-29T09:57:47.689Z,9.45
2023-03-29T10:02:55.432Z,10.00
2023-03-29T10:08:02.632Z,10.45
2023-03-29T10:13:12.329Z,12.48
2023-03-29T10:18:16.943Z,11.52
2023-03-29T10:23:22.035Z,10.60
2023-03-29T10:28:26.458Z,9.50
2023-03-29T10:33:33.093Z,12.05
2023-03-29T10:38:39.536Z,9.57
2023-03-29T10:43:46.354Z,11.40
2023-03-29T10:48:51.999Z,12.27
2023-03-29T10:53:58.926Z,10.60
2023-03-29T10:59:27.598Z,14.55
2023-03-29T11:04:42.266Z,11.32
2023-03-29T11:09:55.744Z,13.57
2023-03-29T11:15:11.225Z,9.82
2023-03-29T11:20:33.494Z,10.15
2023-03-29T11:25:50.639Z,11.38
2023-03-29T11:31:02.251Z,8.73
2023-03-29T11:36:13.858Z,9.98
2023-03-29T11:41:22.305Z,9.05
2023-03-29T11:46:31.654Z,9.20
2023-03-29T11:51:39.877Z,10.60
2023-03-29T11:56:48.867Z,9.32
2023-03-29T12:01:55.742Z,10.35
2023-03-29T12:07:10.199Z,9.05
2023-03-29T12:12:20.558Z,8.52
2023-03-29T12:17:29.635Z,6.88
2023-03-29T12:22:34.107Z,7.10
2023-03-29T12:27:46.926Z,8.15
2023-03-29T12:33:18.382Z,9.57
2023-03-29T12:38:24.238Z,6.00
2023-03-29T12:43:32.605Z,7.97
2023-03-29T12:48:38.944Z,7.35
2023-03-29T12:53:45.203Z,7.88
2023-03-29T12:59:07.142Z,6.45
2023-03-29T13:04:19.618Z,7.20
2023-03-29T13:09:24.805Z,7.95
2023-03-29T13:14:34.254Z,9.57
2023-03-29T13:19:44.715Z,9.07
2023-03-29T13:25:10.521Z,8.85
2023-03-29T13:30:35.317Z,8.20
2023-03-29T13:35:49.294Z,8.52
2023-03-29T13:41:04.926Z,7.32
2023-03-29T13:46:36.640Z,8.55
2023-03-29T13:51:42.571Z,9.07
2023-03-29T13:56:59.919Z,7.53
2023-03-29T14:02:07.607Z,8.93
2023-03-29T14:07:16.350Z,8.70
2023-03-29T14:12:20.168Z,10.02
2023-03-29T14:17:26.177Z,8.90
2023-03-29T14:22:32.470Z,9.90
2023-03-29T14:27:37.936Z,6.93
2023-03-29T14:32:42.822Z,8.45
2023-03-29T14:37:48.190Z,10.07
2023-03-29T14:42:52.323Z,9.38
2023-03-29T14:47:58.131Z,10.05
2023-03-29T14:53:03.382Z,10.02
2023-03-29T14:58:21.439Z,9.02
2023-03-29T15:03:27.433Z,9.80
2023-03-29T15:08:35.023Z,9.65
2023-03-29T15:13:42.962Z,9.77
2023-03-29T15:18:51.899Z,9.50
2023-03-29T15:23:57.882Z,13.90
2023-03-29T15:29:09.149Z,19.42
2023-03-29T15:34:15.631Z,20.23
2023-03-29T15:39:20.730Z,15.30
2023-03-29T15:44:27.817Z,11.98
2023-03-29T15:49:32.593Z,10.52
2023-03-29T15:54:37.333Z,16.85
2023-03-29T15:59:41.076Z,15.52
2023-03-29T16:04:46.034Z,14.52
2023-03-29T16:09:49.487Z,15.35
2023-03-29T16:14:53.371Z,13.60
2023-03-29T16:19:58.119Z,12.57
2023-03-29T16:25:01.449Z,14.80
2023-03-29T16:30:05.387Z,15.18
2023-03-29T16:35:17.180Z,15.98
2023-03-29T16:40:21.163Z,14.95
2023-03-29T16:45:24.741Z,14.55
2023-03-29T16:50:29.558Z,18.08
2023-03-29T16:55:33.086Z,13.05
2023-03-29T17:00:36.810Z,12.73
2023-03-29T17:05:41.857Z,13.18
2023-03-29T17:10:45.519Z,16.75
2023-03-29T17:15:52.215Z,16.30
2023-03-29T17:21:00.149Z,14.70
2023-03-29T17:26:04.087Z,20.67
2023-03-29T17:31:09.067Z,14.52
2023-03-29T17:36:14.415Z,16.55
2023-03-29T17:41:19.275Z,15.48
2023-03-29T17:46:23.175Z,15.68
2023-03-29T17:51:28.608Z,15.65
2023-03-29T17:56:32.166Z,14.85
2023-03-29T18:01:38.464Z,18.10
2023-03-29T18:06:43.925Z,15.40
2023-03-29T18:11:47.367Z,17.58
2023-03-29T18:16:50.988Z,12.73
2023-03-29T18:21:56.202Z,14.68
2023-03-29T18:26:59.612Z,15.63
2023-03-29T18:32:03.236Z,16.23
2023-03-29T18:37:14.540Z,15.68
2023-03-29T18:42:20.432Z,17.40
2023-03-29T18:47:24.051Z,20.95
2023-03-29T18:52:28.911Z,16.13
2023-03-29T18:57:32.420Z,14.00
2023-03-29T19:02:36.061Z,18.35
2023-03-29T19:07:41.075Z,18.30
2023-03-29T19:12:44.689Z,18.63
2023-03-29T19:17:48.150Z,20.27
2023-03-29T19:22:53.403Z,20.52
2023-03-29T19:27:58.871Z,22.27
2023-03-29T19:33:02.499Z,20.77
2023-03-29T19:38:07.755Z,18.65
2023-03-29T19:43:16.428Z,24.15
2023-03-29T19:48:23.684Z,23.70
2023-03-29T19:53:29.701Z,22.58
2023-03-29T19:58:33.279Z,24.17
2023-03-29T20:03:36.758Z,22.13
2023-03-29T20:08:41.828Z,21.10
2023-03-29T20:13:46.610Z,23.85
2023-03-29T20:18:49.939Z,25.20
2023-03-29T20:23:54.869Z,23.92
2023-03-29T20:28:58.308Z,28.73
2023-03-29T20:34:01.594Z,29.80
2023-03-29T20:39:06.529Z,32.33
2023-03-29T20:44:10.769Z,31.48
2023-03-29T20:49:14.295Z,30.00
2023-03-29T20:54:19.184Z,31.90
2023-03-29T20:59:22.878Z,39.20
2023-03-29T21:04:26.791Z,35.20
2023-03-29T21:09:34.334Z,32.92
2023-03-29T21:14:38.012Z,33.63
2023-03-29T21:19:41.715Z,29.48
2023-03-29T21:24:46.657Z,35.30
2023-03-29T21:29:50.438Z,35.00
2023-03-29T21:34:54.072Z,32.20
2023-03-29T21:39:59.000Z,32.58
2023-03-29T21:45:02.531Z,33.50
2023-03-29T21:50:08.260Z,36.10
2023-03-29T21:55:13.095Z,44.42
2023-03-29T22:00:18.053Z,36.60
2023-03-29T22:05:21.699Z,35.97
2023-03-29T22:10:27.437Z,48.03
2023-03-29T22:15:35.590Z,43.78
2023-03-29T22:20:40.274Z,39.78
2023-03-29T22:25:45.047Z,38.40
2023-03-29T22:30:48.499Z,40.83
2023-03-29T22:35:51.971Z,36.28
2023-03-29T22:40:57.270Z,36.50
2023-03-29T22:46:00.934Z,34.63
2023-03-29T22:51:05.650Z,37.28
2023-03-29T22:56:10.910Z,35.42
2023-03-29T23:01:14.738Z,33.67
2023-03-29T23:06:18.299Z,31.55
2023-03-29T23:11:23.246Z,28.52
2023-03-29T23:16:26.793Z,31.90
2023-03-29T23:21:30.276Z,30.20
2023-03-29T23:26:35.783Z,30.80
2023-03-29T23:31:39.353Z,33.78
2023-03-29T23:36:42.688Z,35.85
2023-03-29T23:41:47.457Z,35.20
2023-03-29T23:46:51.001Z,27.40
2023-03-29T23:51:54.389Z,32.60
2023-03-29T23:57:00.306Z,35.30
